Time;durP1;ratioP1;P1;durP2;ratioP2;P2;SDS_P1;SDS_P2;PMS_P1;PMS_P2;Temp;Humidity;BMP_temperature;BMP_pressure;BME280_temperature;BME280_humidity;BME280_pressure;Samples;Min_cycle;Max_cycle;Signal;HPM_P1;HPM_P2
2022/09/07 00:01:55;;;;;;;340.55;181.90;;;;;;;;;;5053671;28;20551;-50
2022/09/07 00:04:21;;;;;;;311.88;168.70;;;;;;;;;;5056178;28;20211;-50
2022/09/07 00:06:47;;;;;;;315.95;172.80;;;;;;;;;;5054491;28;20248;-50
2022/09/07 00:09:13;;;;;;;294.52;161.90;;;;;;;;;;5058171;28;20230;-50
2022/09/07 00:11:39;;;;;;;279.23;156.63;;;;;;;;;;5057044;28;20191;-50
2022/09/07 00:14:06;;;;;;;327.40;177.15;;;;;;;;;;5061379;28;20682;-50
2022/09/07 00:16:32;;;;;;;335.55;176.73;;;;;;;;;;5054841;28;20175;-49
2022/09/07 00:19:00;;;;;;;350.40;183.38;;;;;;;;;;5054340;28;20186;-50
2022/09/07 00:21:26;;;;;;;297.92;162.27;;;;;;;;;;5053354;28;21961;-50
2022/09/07 00:23:52;;;;;;;321.50;176.57;;;;;;;;;;5055828;28;20206;-50
2022/09/07 00:26:20;;;;;;;310.33;169.05;;;;;;;;;;5061617;28;20175;-50
2022/09/07 00:28:46;;;;;;;303.40;165.88;;;;;;;;;;5062990;28;20311;-49
2022/09/07 00:31:22;;;;;;;312.90;166.80;;;;;;;;;;5059121;28;20193;-49
2022/09/07 00:33:49;;;;;;;313.55;172.00;;;;;;;;;;5055037;28;20207;-50
2022/09/07 00:36:16;;;;;;;377.15;201.32;;;;;;;;;;5055183;28;20302;-50
2022/09/07 00:38:42;;;;;;;314.10;171.13;;;;;;;;;;5060940;28;20201;-49
2022/09/07 00:41:08;;;;;;;333.05;180.65;;;;;;;;;;5053338;28;20187;-49
2022/09/07 00:43:35;;;;;;;307.85;169.95;;;;;;;;;;5058319;28;20203;-49
2022/09/07 00:46:02;;;;;;;330.17;179.35;;;;;;;;;;5049918;28;20482;-50
2022/09/07 00:48:31;;;;;;;306.88;172.00;;;;;;;;;;5054286;28;20699;-49
2022/09/07 00:51:04;;;;;;;298.17;166.35;;;;;;;;;;5049598;28;20264;-49
2022/09/07 00:53:33;;;;;;;331.35;181.48;;;;;;;;;;5054522;28;20186;-49
2022/09/07 00:56:00;;;;;;;342.05;184.27;;;;;;;;;;5055557;28;20214;-49
2022/09/07 00:58:26;;;;;;;290.38;162.25;;;;;;;;;;5052706;28;20182;-49
2022/09/07 01:00:53;;;;;;;295.55;163.40;;;;;;;;;;5058762;28;20202;-50
2022/09/07 01:03:24;;;;;;;313.13;170.85;;;;;;;;;;5054904;28;20274;-50
2022/09/07 01:05:54;;;;;;;303.60;167.65;;;;;;;;;;5052519;28;20532;-50
2022/09/07 01:08:20;;;;;;;302.58;164.40;;;;;;;;;;5054211;28;20203;-50
2022/09/07 01:10:46;;;;;;;304.70;167.57;;;;;;;;;;5055533;28;20188;-50
2022/09/07 01:13:13;;;;;;;310.23;169.20;;;;;;;;;;5048105;28;20230;-50
2022/09/07 01:15:50;;;;;;;315.88;173.00;;;;;;;;;;5055928;28;20187;-50
2022/09/07 01:18:30;;;;;;;336.73;179.05;;;;;;;;;;5052171;28;20251;-50
2022/09/07 01:21:20;;;;;;;314.58;168.88;;;;;;;;;;5054537;28;20211;-49
2022/09/07 01:24:04;;;;;;;299.80;163.77;;;;;;;;;;5058522;28;20309;-49
2022/09/07 01:26:39;;;;;;;286.90;159.73;;;;;;;;;;5057862;28;20191;-50
2022/09/07 01:29:17;;;;;;;311.95;170.27;;;;;;;;;;5051163;28;20182;-50
2022/09/07 01:32:04;;;;;;;289.63;162.95;;;;;;;;;;5057505;28;20175;-50
2022/09/07 01:34:30;;;;;;;313.00;175.45;;;;;;;;;;5050658;28;20398;-50
2022/09/07 01:37:16;;;;;;;329.77;177.55;;;;;;;;;;5047402;28;20198;-50
2022/09/07 01:40:03;;;;;;;305.48;170.40;;;;;;;;;;5055378;28;20190;-50
2022/09/07 01:42:32;;;;;;;333.05;180.65;;;;;;;;;;5050477;28;20435;-50
2022/09/07 01:45:00;;;;;;;314.45;170.15;;;;;;;;;;5053554;28;20723;-49
2022/09/07 01:47:30;;;;;;;299.23;164.80;;;;;;;;;;5055253;28;20292;-50
2022/09/07 01:49:56;;;;;;;315.75;171.30;;;;;;;;;;5055353;28;20593;-50
2022/09/07 01:52:22;;;;;;;299.35;166.43;;;;;;;;;;5049626;28;20202;-49
2022/09/07 01:54:51;;;;;;;306.10;171.93;;;;;;;;;;5051789;28;20198;-49
2022/09/07 01:57:19;;;;;;;311.77;171.77;;;;;;;;;;5050927;28;20440;-49
2022/09/07 01:59:52;;;;;;;315.75;173.45;;;;;;;;;;5054132;28;20492;-49
2022/09/07 02:02:20;;;;;;;298.27;168.37;;;;;;;;;;5055072;28;20369;-50
2022/09/07 02:04:49;;;;;;;314.30;173.25;;;;;;;;;;5054492;28;25154;-50
2022/09/07 02:07:19;;;;;;;285.42;158.38;;;;;;;;;;5050246;28;21017;-50
2022/09/07 02:09:54;;;;;;;263.77;149.93;;;;;;;;;;5053697;28;20179;-50
2022/09/07 02:12:34;;;;;;;298.08;165.20;;;;;;;;;;5048849;28;20188;-50
2022/09/07 02:15:01;;;;;;;315.65;174.60;;;;;;;;;;5048642;28;20241;-49
2022/09/07 02:17:31;;;;;;;293.02;161.20;;;;;;;;;;5053535;22;20442;-48
2022/09/07 02:20:03;;;;;;;352.48;188.25;;;;;;;;;;5030519;28;20496;-49
2022/09/07 02:22:31;;;;;;;340.97;181.30;;;;;;;;;;5033506;28;20361;-49
2022/09/07 02:24:58;;;;;;;321.23;169.80;;;;;;;;;;5033736;28;20209;-49
2022/09/07 02:27:27;;;;;;;255.80;143.80;;;;;;;;;;5032466;28;20645;-49
2022/09/07 02:29:53;;;;;;;334.42;177.20;;;;;;;;;;5032461;28;20187;-49
2022/09/07 02:32:19;;;;;;;304.55;164.40;;;;;;;;;;5031286;28;20738;-49
2022/09/07 02:34:45;;;;;;;364.52;193.18;;;;;;;;;;5024319;28;20762;-49
2022/09/07 02:37:13;;;;;;;318.83;169.93;;;;;;;;;;5030846;28;20215;-49
2022/09/07 02:39:39;;;;;;;292.20;160.98;;;;;;;;;;5026390;28;20647;-50
2022/09/07 02:42:05;;;;;;;347.27;182.98;;;;;;;;;;5029811;28;20208;-49
2022/09/07 02:44:33;;;;;;;279.45;155.48;;;;;;;;;;5030647;28;20203;-49
2022/09/07 02:46:59;;;;;;;341.02;179.70;;;;;;;;;;5031364;28;20208;-49
2022/09/07 02:49:44;;;;;;;325.90;174.03;;;;;;;;;;5033617;28;20206;-49
2022/09/07 02:52:10;;;;;;;339.35;178.35;;;;;;;;;;5034023;28;20188;-49
2022/09/07 02:54:36;;;;;;;274.20;153.80;;;;;;;;;;5028083;28;20210;-49
2022/09/07 02:57:04;;;;;;;349.80;180.05;;;;;;;;;;5028648;28;20192;-49
2022/09/07 02:59:57;;;;;;;262.10;143.20;;;;;;;;;;5031363;28;20545;-49
2022/09/07 03:02:42;;;;;;;288.80;155.07;;;;;;;;;;5028116;28;20223;-49
2022/09/07 03:05:16;;;;;;;349.20;180.98;;;;;;;;;;5026490;28;20199;-49
2022/09/07 03:07:46;;;;;;;273.17;146.57;;;;;;;;;;5027158;28;20338;-49
2022/09/07 03:10:13;;;;;;;339.50;173.85;;;;;;;;;;5030337;28;20187;-49
2022/09/07 03:12:46;;;;;;;233.88;138.85;;;;;;;;;;5032137;28;20429;-49
2022/09/07 03:15:13;;;;;;;339.05;172.02;;;;;;;;;;5034704;28;20202;-49
2022/09/07 03:17:40;;;;;;;269.57;154.60;;;;;;;;;;5033906;28;20196;-49
2022/09/07 03:20:06;;;;;;;292.08;156.88;;;;;;;;;;5033073;28;20578;-49
2022/09/07 03:22:33;;;;;;;285.80;153.43;;;;;;;;;;5033879;28;20190;-49
2022/09/07 03:24:59;;;;;;;338.73;172.63;;;;;;;;;;5033414;28;20201;-48
2022/09/07 03:27:25;;;;;;;284.77;150.73;;;;;;;;;;5031897;28;20211;-49
2022/09/07 03:29:51;;;;;;;235.35;133.15;;;;;;;;;;5039511;28;20584;-49
2022/09/07 03:32:17;;;;;;;313.83;160.98;;;;;;;;;;5032266;28;20180;-49
2022/09/07 03:34:43;;;;;;;276.60;150.18;;;;;;;;;;5033630;28;20195;-49
2022/09/07 03:37:09;;;;;;;338.37;173.90;;;;;;;;;;5028842;28;20205;-49
2022/09/07 03:39:35;;;;;;;260.15;144.63;;;;;;;;;;5040633;28;20267;-49
2022/09/07 03:42:01;;;;;;;307.40;159.32;;;;;;;;;;5037759;28;20184;-49
2022/09/07 03:44:27;;;;;;;253.33;141.93;;;;;;;;;;5035146;28;20204;-49
2022/09/07 03:46:53;;;;;;;283.60;152.30;;;;;;;;;;5031072;28;20239;-49
2022/09/07 03:49:19;;;;;;;268.00;149.70;;;;;;;;;;5031352;28;20195;-49
2022/09/07 03:51:45;;;;;;;237.17;132.43;;;;;;;;;;5038958;28;20670;-49
2022/09/07 03:54:11;;;;;;;320.30;166.43;;;;;;;;;;5033263;28;20499;-49
2022/09/07 03:56:37;;;;;;;224.45;132.07;;;;;;;;;;5035665;28;20179;-49
2022/09/07 03:59:03;;;;;;;272.80;154.93;;;;;;;;;;5034870;28;20180;-49
2022/09/07 04:01:29;;;;;;;251.50;140.95;;;;;;;;;;5035709;28;20191;-49
2022/09/07 04:04:01;;;;;;;281.90;156.48;;;;;;;;;;5036590;28;20200;-49
2022/09/07 04:06:27;;;;;;;276.48;154.68;;;;;;;;;;5038676;28;20263;-49
2022/09/07 04:08:55;;;;;;;263.67;143.13;;;;;;;;;;5040250;28;20249;-49
2022/09/07 04:11:21;;;;;;;281.67;153.13;;;;;;;;;;5035225;28;20188;-49
2022/09/07 04:13:46;;;;;;;255.13;143.97;;;;;;;;;;5032296;28;20196;-49
2022/09/07 04:16:14;;;;;;;233.48;137.75;;;;;;;;;;5036035;28;20188;-49
2022/09/07 04:18:40;;;;;;;253.70;145.23;;;;;;;;;;5040847;28;20191;-49
2022/09/07 04:21:06;;;;;;;302.33;161.57;;;;;;;;;;5036938;28;20294;-49
2022/09/07 04:23:32;;;;;;;228.05;134.73;;;;;;;;;;5032543;28;20199;-49
2022/09/07 04:25:58;;;;;;;318.27;168.43;;;;;;;;;;5032383;28;20199;-49
2022/09/07 04:28:25;;;;;;;263.40;148.75;;;;;;;;;;5037892;28;20543;-49
2022/09/07 04:30:50;;;;;;;236.98;136.90;;;;;;;;;;5036147;28;20211;-49
2022/09/07 04:33:17;;;;;;;302.83;158.77;;;;;;;;;;5038751;28;20246;-50
2022/09/07 04:35:43;;;;;;;271.73;153.48;;;;;;;;;;5036867;28;20261;-49
2022/09/07 04:38:12;;;;;;;272.60;152.38;;;;;;;;;;5027866;28;20559;-49
2022/09/07 04:40:38;;;;;;;279.83;154.27;;;;;;;;;;5039755;28;20615;-49
2022/09/07 04:43:04;;;;;;;243.50;140.80;;;;;;;;;;5036693;28;20184;-50
2022/09/07 04:45:30;;;;;;;223.05;132.35;;;;;;;;;;5039143;28;20218;-49
2022/09/07 04:47:56;;;;;;;212.65;127.80;;;;;;;;;;5034225;28;20254;-50
2022/09/07 04:50:23;;;;;;;255.75;148.00;;;;;;;;;;5035122;28;20183;-49
2022/09/07 04:52:49;;;;;;;194.68;127.93;;;;;;;;;;5039473;28;20180;-49
2022/09/07 04:55:15;;;;;;;212.82;132.32;;;;;;;;;;5034100;28;20222;-49
2022/09/07 04:57:41;;;;;;;182.40;120.97;;;;;;;;;;5030354;28;20675;-49
2022/09/07 05:00:09;;;;;;;193.60;125.32;;;;;;;;;;5038654;28;20183;-50
2022/09/07 05:02:35;;;;;;;186.25;121.53;;;;;;;;;;5039188;28;20191;-49
2022/09/07 05:05:01;;;;;;;209.18;130.18;;;;;;;;;;5035359;28;20211;-50
2022/09/07 05:07:27;;;;;;;169.07;115.13;;;;;;;;;;5035138;28;20664;-50
2022/09/07 05:09:53;;;;;;;184.98;123.20;;;;;;;;;;5038664;28;20656;-50
2022/09/07 05:12:19;;;;;;;237.20;137.65;;;;;;;;;;5033561;28;20540;-50
2022/09/07 05:14:45;;;;;;;198.77;120.53;;;;;;;;;;5040558;28;20200;-50
2022/09/07 05:17:11;;;;;;;217.93;126.43;;;;;;;;;;5040317;28;20210;-50
2022/09/07 05:19:37;;;;;;;203.00;123.18;;;;;;;;;;5037658;28;20526;-50
2022/09/07 05:22:03;;;;;;;200.45;123.80;;;;;;;;;;5035927;28;20191;-50
2022/09/07 05:24:29;;;;;;;216.68;130.10;;;;;;;;;;5036934;28;20211;-50
2022/09/07 05:26:54;;;;;;;267.50;147.98;;;;;;;;;;5031447;28;20652;-50
2022/09/07 05:29:21;;;;;;;239.70;136.90;;;;;;;;;;5032784;28;20184;-50
2022/09/07 05:31:47;;;;;;;248.02;143.25;;;;;;;;;;5037172;28;20241;-50
2022/09/07 05:34:14;;;;;;;328.02;168.98;;;;;;;;;;5015008;28;20192;-50
2022/09/07 05:36:41;;;;;;;184.25;121.65;;;;;;;;;;5021491;28;20188;-50
2022/09/07 05:39:07;;;;;;;207.68;128.88;;;;;;;;;;5029150;28;20389;-50
2022/09/07 05:41:33;;;;;;;191.52;120.13;;;;;;;;;;5030994;28;20215;-50
2022/09/07 05:43:59;;;;;;;229.77;134.18;;;;;;;;;;5028913;28;20504;-49
2022/09/07 05:46:25;;;;;;;307.75;164.82;;;;;;;;;;5021056;28;20184;-49
2022/09/07 05:48:51;;;;;;;209.93;131.73;;;;;;;;;;5033007;28;20221;-50
2022/09/07 05:51:17;;;;;;;276.20;153.20;;;;;;;;;;5019681;28;20239;-50
2022/09/07 05:53:46;;;;;;;199.10;126.63;;;;;;;;;;5029170;28;20227;-50
2022/09/07 05:56:12;;;;;;;250.55;145.10;;;;;;;;;;5030525;28;20188;-50
2022/09/07 05:58:38;;;;;;;245.65;140.82;;;;;;;;;;5032913;28;20211;-50
2022/09/07 06:01:05;;;;;;;261.77;150.90;;;;;;;;;;5023765;28;20559;-50
2022/09/07 06:03:32;;;;;;;230.43;140.63;;;;;;;;;;5029780;28;20290;-50
2022/09/07 06:06:09;;;;;;;219.93;132.90;;;;;;;;;;5020800;28;23264;-50
2022/09/07 06:08:36;;;;;;;222.82;132.98;;;;;;;;;;5022588;28;20215;-48
2022/09/07 06:11:06;;;;;;;311.92;166.85;;;;;;;;;;5020330;28;20180;-48
2022/09/07 06:13:32;;;;;;;345.90;175.73;;;;;;;;;;5006482;28;20742;-49
2022/09/07 06:16:02;;;;;;;234.45;140.63;;;;;;;;;;5020432;28;20211;-49
2022/09/07 06:18:30;;;;;;;255.18;137.35;;;;;;;;;;5031563;28;20621;-48
2022/09/07 06:20:56;;;;;;;269.20;150.68;;;;;;;;;;5026389;28;20709;-48
2022/09/07 06:23:22;;;;;;;239.05;143.73;;;;;;;;;;5029069;28;20191;-48
2022/09/07 06:25:48;;;;;;;305.35;170.23;;;;;;;;;;5033782;28;20543;-48
2022/09/07 06:28:14;;;;;;;299.60;165.65;;;;;;;;;;5020151;28;20218;-48
2022/09/07 06:30:40;;;;;;;224.38;138.18;;;;;;;;;;5026752;28;20192;-48
2022/09/07 06:33:06;;;;;;;239.93;138.50;;;;;;;;;;5028383;28;20187;-48
2022/09/07 06:35:32;;;;;;;285.42;161.63;;;;;;;;;;5034783;28;20242;-48
2022/09/07 06:37:58;;;;;;;309.27;161.82;;;;;;;;;;5010723;28;20192;-49
2022/09/07 06:40:24;;;;;;;318.80;152.77;;;;;;;;;;5019923;28;20218;-47
2022/09/07 06:42:50;;;;;;;309.75;161.35;;;;;;;;;;5017834;28;20195;-46
2022/09/07 06:45:16;;;;;;;275.60;151.27;;;;;;;;;;5036896;28;20210;-47
2022/09/07 06:47:42;;;;;;;271.35;148.23;;;;;;;;;;5025758;28;20198;-46
2022/09/07 06:50:08;;;;;;;254.77;147.52;;;;;;;;;;5028009;28;20176;-47
2022/09/07 06:52:36;;;;;;;233.77;142.68;;;;;;;;;;5034904;28;20281;-46
2022/09/07 06:55:03;;;;;;;212.25;135.05;;;;;;;;;;5028978;28;20855;-47
2022/09/07 06:57:29;;;;;;;316.65;166.35;;;;;;;;;;5033107;28;20266;-46
2022/09/07 06:59:55;;;;;;;238.00;142.10;;;;;;;;;;5029359;28;20283;-47
2022/09/07 07:02:20;;;;;;;429.50;209.10;;;;;;;;;;5018639;28;20277;-47
2022/09/07 07:04:46;;;;;;;280.10;159.70;;;;;;;;;;5019269;28;20323;-46
2022/09/07 07:07:13;;;;;;;303.23;173.40;;;;;;;;;;5023013;28;20195;-49
2022/09/07 07:09:39;;;;;;;236.07;148.77;;;;;;;;;;5032370;28;20175;-49
2022/09/07 07:12:05;;;;;;;254.38;158.07;;;;;;;;;;5035169;28;20513;-49
2022/09/07 07:14:32;;;;;;;224.98;147.27;;;;;;;;;;5031890;28;20206;-49
2022/09/07 07:16:57;;;;;;;373.98;200.25;;;;;;;;;;5021342;28;20210;-49
2022/09/07 07:19:23;;;;;;;241.82;154.57;;;;;;;;;;5036731;28;20590;-50
2022/09/07 07:21:49;;;;;;;250.77;154.25;;;;;;;;;;5036768;28;20183;-50
2022/09/07 07:24:15;;;;;;;342.25;187.25;;;;;;;;;;5030943;28;20204;-49
2022/09/07 07:26:47;;;;;;;280.95;163.85;;;;;;;;;;5031616;28;20188;-49
2022/09/07 07:29:13;;;;;;;246.27;155.75;;;;;;;;;;5030316;28;20192;-49
2022/09/07 07:31:39;;;;;;;287.50;173.32;;;;;;;;;;5025195;28;20188;-50
2022/09/07 07:34:05;;;;;;;370.42;205.40;;;;;;;;;;5012209;28;20215;-49
2022/09/07 07:36:31;;;;;;;296.33;176.77;;;;;;;;;;5024958;28;20187;-50
2022/09/07 07:38:57;;;;;;;296.95;175.23;;;;;;;;;;5027717;28;20184;-49
2022/09/07 07:41:25;;;;;;;339.42;194.85;;;;;;;;;;5023067;28;20397;-50
2022/09/07 07:43:59;;;;;;;264.70;171.27;;;;;;;;;;5016027;28;20675;-50
2022/09/07 07:46:25;;;;;;;335.52;194.10;;;;;;;;;;5032057;28;20210;-50
2022/09/07 07:48:51;;;;;;;304.23;175.63;;;;;;;;;;5024271;28;20199;-50
2022/09/07 07:51:18;;;;;;;255.50;169.07;;;;;;;;;;5029696;28;20191;-50
2022/09/07 07:53:44;;;;;;;315.33;186.52;;;;;;;;;;5032793;28;20203;-50
2022/09/07 07:56:11;;;;;;;296.83;181.70;;;;;;;;;;5019573;28;20181;-50
2022/09/07 07:58:37;;;;;;;327.67;198.13;;;;;;;;;;5023519;28;20254;-50
2022/09/07 08:01:09;;;;;;;279.17;176.95;;;;;;;;;;5023596;28;20809;-50
2022/09/07 08:03:35;;;;;;;300.13;187.13;;;;;;;;;;5026949;28;20200;-50
2022/09/07 08:06:10;;;;;;;285.38;180.27;;;;;;;;;;5026323;28;20187;-50
2022/09/07 08:08:36;;;;;;;344.58;203.25;;;;;;;;;;5027633;28;20241;-50
2022/09/07 08:11:06;;;;;;;326.27;200.60;;;;;;;;;;5016559;28;20194;-50
2022/09/07 08:13:33;;;;;;;250.18;173.52;;;;;;;;;;5023797;28;20200;-50
2022/09/07 08:15:59;;;;;;;321.98;189.05;;;;;;;;;;5019328;28;20290;-50
2022/09/07 08:18:25;;;;;;;295.90;176.70;;;;;;;;;;5026180;28;20322;-50
2022/09/07 08:20:51;;;;;;;266.73;176.32;;;;;;;;;;5028038;28;20190;-50
2022/09/07 08:23:19;;;;;;;418.42;235.20;;;;;;;;;;5024350;28;20193;-50
2022/09/07 08:25:52;;;;;;;314.35;194.80;;;;;;;;;;5023615;28;20360;-50
2022/09/07 08:28:19;;;;;;;332.38;202.90;;;;;;;;;;5021755;28;21300;-50
2022/09/07 08:30:45;;;;;;;321.38;199.75;;;;;;;;;;5038084;28;20480;-50
2022/09/07 08:33:10;;;;;;;362.48;218.85;;;;;;;;;;5025107;28;20228;-51
2022/09/07 08:35:36;;;;;;;344.70;211.55;;;;;;;;;;5025414;28;20226;-51
2022/09/07 08:38:02;;;;;;;325.55;206.23;;;;;;;;;;5027823;28;20291;-51
2022/09/07 08:40:29;;;;;;;373.92;221.32;;;;;;;;;;5020390;28;20188;-51
2022/09/07 08:43:01;;;;;;;345.23;212.27;;;;;;;;;;5025574;28;21087;-51
2022/09/07 08:45:29;;;;;;;322.50;204.18;;;;;;;;;;5021791;28;20423;-51
2022/09/07 08:47:55;;;;;;;312.38;199.95;;;;;;;;;;5022920;28;20203;-51
2022/09/07 08:50:30;;;;;;;295.27;182.73;;;;;;;;;;5030303;28;21256;-51
2022/09/07 08:52:58;;;;;;;371.60;214.57;;;;;;;;;;5021320;28;20175;-51
2022/09/07 08:55:30;;;;;;;371.38;215.35;;;;;;;;;;5030698;28;21261;-51
2022/09/07 08:58:06;;;;;;;324.30;195.20;;;;;;;;;;5016517;28;20716;-50
2022/09/07 09:00:34;;;;;;;347.80;208.63;;;;;;;;;;5033246;28;20195;-50
2022/09/07 09:03:01;;;;;;;328.60;202.35;;;;;;;;;;5032396;28;20190;-50
2022/09/07 09:05:36;;;;;;;381.35;226.57;;;;;;;;;;5029539;28;20298;-50
2022/09/07 09:08:05;;;;;;;335.02;209.98;;;;;;;;;;5031916;28;20230;-50
2022/09/07 09:10:40;;;;;;;322.65;200.25;;;;;;;;;;5026973;28;20187;-50
2022/09/07 09:13:10;;;;;;;313.88;195.18;;;;;;;;;;5031059;28;20217;-50
2022/09/07 09:15:35;;;;;;;321.25;200.93;;;;;;;;;;5038905;28;20286;-50
2022/09/07 09:18:16;;;;;;;328.98;201.93;;;;;;;;;;5025485;28;20217;-50
2022/09/07 09:20:48;;;;;;;355.25;218.10;;;;;;;;;;5031253;28;20202;-50
2022/09/07 09:23:16;;;;;;;331.00;205.48;;;;;;;;;;5035537;28;20224;-50
2022/09/07 09:25:46;;;;;;;367.92;227.20;;;;;;;;;;5037422;28;20652;-50
2022/09/07 09:28:12;;;;;;;338.83;213.40;;;;;;;;;;5025589;28;20227;-50
2022/09/07 09:30:38;;;;;;;338.45;219.68;;;;;;;;;;5031296;28;20277;-50
2022/09/07 09:33:16;;;;;;;356.73;220.68;;;;;;;;;;5031127;28;20183;-50
2022/09/07 09:35:43;;;;;;;375.65;233.88;;;;;;;;;;5037415;28;20179;-50
2022/09/07 09:38:28;;;;;;;359.73;219.15;;;;;;;;;;5029060;28;21105;-50
2022/09/07 09:40:55;;;;;;;332.73;199.23;;;;;;;;;;5032832;28;20250;-51
2022/09/07 09:43:23;;;;;;;286.15;206.88;;;;;;;;;;5029009;28;20791;-51
2022/09/07 09:45:51;;;;;;;341.95;231.45;;;;;;;;;;5039658;28;20214;-51
2022/09/07 09:48:38;;;;;;;340.75;212.88;;;;;;;;;;5034998;28;20246;-51
2022/09/07 09:51:05;;;;;;;360.88;219.63;;;;;;;;;;5036555;28;20230;-51
2022/09/07 09:53:33;;;;;;;324.85;213.82;;;;;;;;;;5040949;28;20181;-51
2022/09/07 09:56:01;;;;;;;322.25;217.85;;;;;;;;;;5039568;28;20281;-50
2022/09/07 09:58:31;;;;;;;362.77;229.95;;;;;;;;;;5036360;28;20511;-50
2022/09/07 10:01:00;;;;;;;342.48;221.82;;;;;;;;;;5041545;28;20512;-51
2022/09/07 10:03:26;;;;;;;354.08;230.68;;;;;;;;;;5045324;28;20191;-51
2022/09/07 10:05:53;;;;;;;353.05;242.70;;;;;;;;;;5040641;28;20187;-51
2022/09/07 10:08:19;;;;;;;345.60;242.18;;;;;;;;;;5025198;28;20262;-51
2022/09/07 10:10:52;;;;;;;369.65;250.05;;;;;;;;;;5031790;28;20832;-51
2022/09/07 10:13:20;;;;;;;347.10;241.75;;;;;;;;;;5026183;28;20557;-50
2022/09/07 10:15:49;;;;;;;401.02;269.33;;;;;;;;;;5030049;28;20241;-51
2022/09/07 10:18:18;;;;;;;463.15;285.20;;;;;;;;;;5024809;28;20558;-51
2022/09/07 10:20:44;;;;;;;381.20;255.98;;;;;;;;;;5035899;28;20215;-49
2022/09/07 10:23:19;;;;;;;362.70;243.82;;;;;;;;;;5028521;28;20192;-49
2022/09/07 10:25:46;;;;;;;402.13;261.83;;;;;;;;;;5024136;28;20196;-49
2022/09/07 10:28:16;;;;;;;397.73;255.13;;;;;;;;;;5018896;28;20734;-49
2022/09/07 10:31:01;;;;;;;413.13;276.75;;;;;;;;;;5024628;28;20175;-49
2022/09/07 10:33:39;;;;;;;368.42;260.27;;;;;;;;;;5031044;28;20172;-50
2022/09/07 10:36:41;;;;;;;379.65;256.08;;;;;;;;;;5033321;28;20238;-49
2022/09/07 10:39:10;;;;;;;391.52;259.23;;;;;;;;;;4947804;28;20670;-50
2022/09/07 10:41:42;;;;;;;383.65;253.48;;;;;;;;;;5010135;28;20313;-49
2022/09/07 10:44:14;;;;;;;371.48;250.32;;;;;;;;;;5023732;28;20587;-50
2022/09/07 10:46:43;;;;;;;463.10;296.50;;;;;;;;;;5016721;28;20665;-49
2022/09/07 10:49:20;;;;;;;458.20;295.45;;;;;;;;;;5020427;28;20905;-49
2022/09/07 10:52:06;;;;;;;367.63;253.57;;;;;;;;;;5035120;28;20183;-50
2022/09/07 10:54:40;;;;;;;386.58;255.35;;;;;;;;;;5022534;28;20214;-50
2022/09/07 10:57:25;;;;;;;436.23;279.73;;;;;;;;;;5020200;28;20184;-50
2022/09/07 11:00:10;;;;;;;403.88;267.33;;;;;;;;;;5020666;28;20188;-50
2022/09/07 11:02:42;;;;;;;358.23;252.80;;;;;;;;;;5020896;28;20179;-50
2022/09/07 11:05:08;;;;;;;429.98;281.42;;;;;;;;;;5021537;28;20196;-51
2022/09/07 11:07:40;;;;;;;396.90;266.45;;;;;;;;;;5018333;28;20854;-50
2022/09/07 11:10:17;;;;;;;481.05;301.95;;;;;;;;;;5025555;28;20236;-51
2022/09/07 11:12:44;;;;;;;433.10;277.48;;;;;;;;;;5026901;28;20180;-50
2022/09/07 11:15:10;;;;;;;430.48;275.02;;;;;;;;;;5021689;28;21071;-51
2022/09/07 11:17:42;;;;;;;391.80;258.40;;;;;;;;;;5028457;28;20195;-50
2022/09/07 11:20:31;;;;;;;445.48;272.05;;;;;;;;;;5027688;28;20187;-51
2022/09/07 11:23:00;;;;;;;485.10;285.08;;;;;;;;;;5018345;28;20286;-50
2022/09/07 11:25:30;;;;;;;367.83;255.68;;;;;;;;;;5022819;28;20260;-50
2022/09/07 11:28:22;;;;;;;344.33;251.43;;;;;;;;;;5031952;28;20216;-51
2022/09/07 11:30:57;;;;;;;383.80;254.55;;;;;;;;;;5031825;28;20191;-51
2022/09/07 11:33:45;;;;;;;410.70;274.35;;;;;;;;;;5033837;28;20183;-51
2022/09/07 11:36:13;;;;;;;433.13;290.02;;;;;;;;;;5022841;28;20569;-50
2022/09/07 11:38:47;;;;;;;377.52;271.20;;;;;;;;;;5028992;28;20188;-51
2022/09/07 11:41:28;;;;;;;441.17;291.02;;;;;;;;;;5030817;28;20220;-51
2022/09/07 11:44:00;;;;;;;446.15;295.02;;;;;;;;;;5024997;28;20418;-51
2022/09/07 11:46:31;;;;;;;439.33;297.58;;;;;;;;;;5035169;28;20175;-51
2022/09/07 11:48:57;;;;;;;408.85;280.73;;;;;;;;;;5027446;28;20203;-51
2022/09/07 11:51:37;;;;;;;519.47;329.70;;;;;;;;;;5026252;28;20176;-51
2022/09/07 11:54:12;;;;;;;413.67;288.77;;;;;;;;;;5033788;28;20284;-51
2022/09/07 11:56:40;;;;;;;424.25;290.38;;;;;;;;;;5026371;28;20179;-51
2022/09/07 11:59:17;;;;;;;406.63;282.35;;;;;;;;;;5035503;28;20249;-51
2022/09/07 12:01:43;;;;;;;494.80;326.63;;;;;;;;;;5041467;28;20744;-51
2022/09/07 12:04:15;;;;;;;461.88;303.35;;;;;;;;;;5014806;28;20199;-51
2022/09/07 12:06:59;;;;;;;429.08;288.83;;;;;;;;;;5022021;28;20471;-51
2022/09/07 12:09:42;;;;;;;452.95;298.40;;;;;;;;;;5023097;28;20648;-51
2022/09/07 12:12:23;;;;;;;451.90;301.15;;;;;;;;;;5036238;28;20211;-51
2022/09/07 12:14:51;;;;;;;410.88;274.77;;;;;;;;;;5032950;28;20650;-51
2022/09/07 12:17:30;;;;;;;465.02;301.73;;;;;;;;;;5034926;28;20195;-51
2022/09/07 12:20:09;;;;;;;357.58;256.00;;;;;;;;;;5030114;28;20202;-51
2022/09/07 12:22:35;;;;;;;397.13;269.75;;;;;;;;;;5024784;28;20559;-51
2022/09/07 12:25:08;;;;;;;401.98;275.33;;;;;;;;;;5041237;28;20211;-51
2022/09/07 12:27:34;;;;;;;436.40;296.33;;;;;;;;;;5035538;28;20200;-51
2022/09/07 12:30:03;;;;;;;396.30;279.23;;;;;;;;;;5035786;28;20411;-51
2022/09/07 12:32:55;;;;;;;428.98;294.40;;;;;;;;;;5034903;28;20679;-51
2022/09/07 12:35:32;;;;;;;431.92;297.95;;;;;;;;;;5031250;28;20203;-51
2022/09/07 12:38:02;;;;;;;429.83;312.98;;;;;;;;;;5044241;28;20533;-51
2022/09/07 12:40:28;;;;;;;443.60;315.98;;;;;;;;;;5040650;28;20188;-51
2022/09/07 12:43:12;;;;;;;452.65;326.42;;;;;;;;;;5037953;28;20310;-51
2022/09/07 12:45:38;;;;;;;477.25;337.88;;;;;;;;;;5036844;28;20195;-51
2022/09/07 12:48:07;;;;;;;459.48;340.83;;;;;;;;;;5041157;28;20261;-51
2022/09/07 12:50:34;;;;;;;522.25;372.40;;;;;;;;;;5029073;28;20198;-51
2022/09/07 12:53:12;;;;;;;443.85;337.35;;;;;;;;;;5037962;28;20190;-51
2022/09/07 12:55:48;;;;;;;485.70;348.77;;;;;;;;;;5042300;28;20241;-51
2022/09/07 12:58:17;;;;;;;440.70;324.80;;;;;;;;;;5037483;28;20403;-51
2022/09/07 13:01:06;;;;;;;419.92;320.02;;;;;;;;;;5037883;28;20267;-51
2022/09/07 13:03:40;;;;;;;432.35;319.92;;;;;;;;;;5041742;28;20386;-51
2022/09/07 13:06:14;;;;;;;435.83;320.92;;;;;;;;;;5043923;28;20183;-51
2022/09/07 13:08:40;;;;;;;422.88;321.73;;;;;;;;;;5041997;28;20206;-51
2022/09/07 13:11:21;;;;;;;459.20;337.63;;;;;;;;;;5041245;28;20556;-51
2022/09/07 13:13:54;;;;;;;426.48;327.63;;;;;;;;;;5028592;28;20485;-51
2022/09/07 13:16:26;;;;;;;556.55;382.95;;;;;;;;;;5029913;28;20426;-51
2022/09/07 13:18:52;;;;;;;460.40;350.55;;;;;;;;;;5025373;28;20279;-51
2022/09/07 13:21:17;;;;;;;456.08;350.02;;;;;;;;;;5026441;28;20180;-51
2022/09/07 13:24:04;;;;;;;445.05;337.75;;;;;;;;;;5027395;28;20295;-51
2022/09/07 13:26:49;;;;;;;510.63;368.50;;;;;;;;;;4995598;28;20199;-51
2022/09/07 13:29:17;;;;;;;475.90;362.70;;;;;;;;;;5018647;28;20294;-52
2022/09/07 13:32:09;;;;;;;449.05;344.13;;;;;;;;;;5032678;28;20188;-52
2022/09/07 13:34:41;;;;;;;484.00;366.65;;;;;;;;;;5024546;28;22377;-52
2022/09/07 13:37:14;;;;;;;560.72;402.48;;;;;;;;;;5022696;28;20186;-52
2022/09/07 13:39:43;;;;;;;437.05;351.80;;;;;;;;;;5030678;28;20180;-51
2022/09/07 13:42:14;;;;;;;472.25;362.27;;;;;;;;;;5032316;28;20790;-52
2022/09/07 13:44:41;;;;;;;472.63;360.55;;;;;;;;;;5028937;28;20213;-52
2022/09/07 13:47:13;;;;;;;505.77;376.60;;;;;;;;;;5025130;28;20183;-52
2022/09/07 13:49:50;;;;;;;425.10;365.05;;;;;;;;;;5027325;28;20215;-52
2022/09/07 13:52:23;;;;;;;481.98;376.80;;;;;;;;;;5029339;28;20703;-52
2022/09/07 13:55:07;;;;;;;394.35;343.20;;;;;;;;;;5040184;28;20627;-52
2022/09/07 13:57:52;;;;;;;501.33;386.02;;;;;;;;;;5034055;28;20192;-52
2022/09/07 14:00:19;;;;;;;423.00;354.63;;;;;;;;;;5027552;28;20536;-52
2022/09/07 14:02:49;;;;;;;474.75;371.48;;;;;;;;;;5038097;28;20246;-52
2022/09/07 14:05:17;;;;;;;398.13;331.85;;;;;;;;;;5039774;28;20274;-52
2022/09/07 14:07:47;;;;;;;462.88;354.42;;;;;;;;;;5040557;28;20241;-52